sensor_id;sensor_type;location;lat;lon;timestamp;P1;durP1;ratioP1;P2;durP2;ratioP2
24663;SDS011;12791;50.992;13.788;2023-12-28T00:00:42;9.48;;;6.45;;
24663;SDS011;12791;50.992;13.788;2023-12-28T00:03:09;13.30;;;5.90;;
24663;SDS011;12791;50.992;13.788;2023-12-28T00:05:37;9.70;;;5.50;;
24663;SDS011;12791;50.992;13.788;2023-12-28T00:08:04;11.40;;;6.13;;
24663;SDS011;12791;50.992;13.788;2023-12-28T00:10:31;10.65;;;6.93;;
24663;SDS011;12791;50.992;13.788;2023-12-28T00:12:57;14.20;;;6.10;;
24663;SDS011;12791;50.992;13.788;2023-12-28T00:15:24;9.75;;;6.15;;
24663;SDS011;12791;50.992;13.788;2023-12-28T00:17:51;12.20;;;6.55;;
24663;SDS011;12791;50.992;13.788;2023-12-28T00:20:17;10.48;;;5.93;;
24663;SDS011;12791;50.992;13.788;2023-12-28T00:22:45;9.23;;;5.45;;
24663;SDS011;12791;50.992;13.788;2023-12-28T00:25:12;9.18;;;5.00;;
24663;SDS011;12791;50.992;13.788;2023-12-28T00:27:38;8.63;;;5.40;;
24663;SDS011;12791;50.992;13.788;2023-12-28T00:30:05;10.10;;;5.55;;
24663;SDS011;12791;50.992;13.788;2023-12-28T00:32:32;9.20;;;5.40;;
24663;SDS011;12791;50.992;13.788;2023-12-28T00:34:59;6.95;;;4.30;;
24663;SDS011;12791;50.992;13.788;2023-12-28T00:37:26;7.28;;;4.70;;
24663;SDS011;12791;50.992;13.788;2023-12-28T00:39:53;9.82;;;5.82;;
24663;SDS011;12791;50.992;13.788;2023-12-28T00:42:20;8.27;;;5.53;;
24663;SDS011;12791;50.992;13.788;2023-12-28T00:44:47;10.25;;;5.53;;
24663;SDS011;12791;50.992;13.788;2023-12-28T00:47:13;10.27;;;5.63;;
24663;SDS011;12791;50.992;13.788;2023-12-28T00:49:40;9.35;;;5.15;;
24663;SDS011;12791;50.992;13.788;2023-12-28T00:52:07;9.63;;;6.10;;
24663;SDS011;12791;50.992;13.788;2023-12-28T00:54:34;9.35;;;5.07;;
24663;SDS011;12791;50.992;13.788;2023-12-28T00:57:03;8.05;;;5.22;;
24663;SDS011;12791;50.992;13.788;2023-12-28T00:59:30;10.25;;;6.25;;
24663;SDS011;12791;50.992;13.788;2023-12-28T01:01:57;12.27;;;6.25;;
24663;SDS011;12791;50.992;13.788;2023-12-28T01:04:23;9.70;;;5.68;;
24663;SDS011;12791;50.992;13.788;2023-12-28T01:06:50;8.43;;;5.47;;
24663;SDS011;12791;50.992;13.788;2023-12-28T01:09:17;9.48;;;5.45;;
24663;SDS011;12791;50.992;13.788;2023-12-28T01:11:45;8.93;;;5.25;;
24663;SDS011;12791;50.992;13.788;2023-12-28T01:14:13;8.00;;;5.43;;
24663;SDS011;12791;50.992;13.788;2023-12-28T01:16:40;7.25;;;5.05;;
24663;SDS011;12791;50.992;13.788;2023-12-28T01:19:09;8.77;;;4.95;;
24663;SDS011;12791;50.992;13.788;2023-12-28T01:21:35;8.65;;;5.30;;
24663;SDS011;12791;50.992;13.788;2023-12-28T01:24:02;11.00;;;5.78;;
24663;SDS011;12791;50.992;13.788;2023-12-28T01:26:28;10.00;;;5.22;;
24663;SDS011;12791;50.992;13.788;2023-12-28T01:28:55;8.55;;;5.47;;
24663;SDS011;12791;50.992;13.788;2023-12-28T01:31:23;6.50;;;4.50;;
24663;SDS011;12791;50.992;13.788;2023-12-28T01:33:50;8.27;;;5.25;;
24663;SDS011;12791;50.992;13.788;2023-12-28T01:36:17;6.20;;;3.97;;
24663;SDS011;12791;50.992;13.788;2023-12-28T01:38:43;8.82;;;5.43;;
24663;SDS011;12791;50.992;13.788;2023-12-28T01:41:10;9.23;;;5.57;;
24663;SDS011;12791;50.992;13.788;2023-12-28T01:43:37;7.55;;;5.50;;
24663;SDS011;12791;50.992;13.788;2023-12-28T01:46:04;8.07;;;5.30;;
24663;SDS011;12791;50.992;13.788;2023-12-28T01:48:33;9.25;;;5.53;;
24663;SDS011;12791;50.992;13.788;2023-12-28T01:51:00;7.18;;;5.05;;
24663;SDS011;12791;50.992;13.788;2023-12-28T01:53:28;7.88;;;5.13;;
24663;SDS011;12791;50.992;13.788;2023-12-28T01:55:54;10.32;;;5.82;;
24663;SDS011;12791;50.992;13.788;2023-12-28T01:58:22;7.35;;;4.82;;
24663;SDS011;12791;50.992;13.788;2023-12-28T02:00:49;6.90;;;5.10;;
24663;SDS011;12791;50.992;13.788;2023-12-28T02:03:16;7.25;;;4.60;;
24663;SDS011;12791;50.992;13.788;2023-12-28T02:05:44;5.57;;;4.45;;
24663;SDS011;12791;50.992;13.788;2023-12-28T02:08:12;6.68;;;4.32;;
24663;SDS011;12791;50.992;13.788;2023-12-28T02:10:39;7.10;;;4.28;;
24663;SDS011;12791;50.992;13.788;2023-12-28T02:13:06;5.75;;;4.18;;
24663;SDS011;12791;50.992;13.788;2023-12-28T02:15:33;6.40;;;4.07;;
24663;SDS011;12791;50.992;13.788;2023-12-28T02:18:00;5.30;;;3.83;;
24663;SDS011;12791;50.992;13.788;2023-12-28T02:20:29;6.78;;;3.92;;
24663;SDS011;12791;50.992;13.788;2023-12-28T02:22:57;8.98;;;4.13;;
24663;SDS011;12791;50.992;13.788;2023-12-28T02:25:25;4.38;;;3.58;;
24663;SDS011;12791;50.992;13.788;2023-12-28T02:27:52;6.70;;;3.67;;
24663;SDS011;12791;50.992;13.788;2023-12-28T02:30:20;6.93;;;4.40;;
24663;SDS011;12791;50.992;13.788;2023-12-28T02:32:51;8.02;;;5.30;;
24663;SDS011;12791;50.992;13.788;2023-12-28T02:35:25;7.72;;;5.03;;
24663;SDS011;12791;50.992;13.788;2023-12-28T02:37:58;8.43;;;5.40;;
24663;SDS011;12791;50.992;13.788;2023-12-28T02:40:29;8.50;;;5.22;;
24663;SDS011;12791;50.992;13.788;2023-12-28T02:42:59;8.43;;;5.35;;
24663;SDS011;12791;50.992;13.788;2023-12-28T02:45:26;8.77;;;5.25;;
24663;SDS011;12791;50.992;13.788;2023-12-28T02:47:52;8.68;;;5.35;;
24663;SDS011;12791;50.992;13.788;2023-12-28T02:50:19;7.90;;;4.93;;
24663;SDS011;12791;50.992;13.788;2023-12-28T02:52:45;9.50;;;4.95;;
24663;SDS011;12791;50.992;13.788;2023-12-28T02:55:12;8.77;;;5.28;;
24663;SDS011;12791;50.992;13.788;2023-12-28T02:57:40;8.60;;;4.90;;
24663;SDS011;12791;50.992;13.788;2023-12-28T03:00:07;8.05;;;4.50;;
24663;SDS011;12791;50.992;13.788;2023-12-28T03:02:35;7.35;;;4.07;;
24663;SDS011;12791;50.992;13.788;2023-12-28T03:05:02;3.67;;;2.83;;
24663;SDS011;12791;50.992;13.788;2023-12-28T03:07:29;2.40;;;2.15;;
24663;SDS011;12791;50.992;13.788;2023-12-28T03:09:56;3.47;;;2.08;;
24663;SDS011;12791;50.992;13.788;2023-12-28T03:12:23;2.55;;;1.13;;
24663;SDS011;12791;50.992;13.788;2023-12-28T03:14:51;1.30;;;1.00;;
24663;SDS011;12791;50.992;13.788;2023-12-28T03:17:18;2.45;;;1.80;;
24663;SDS011;12791;50.992;13.788;2023-12-28T03:19:44;5.57;;;3.25;;
24663;SDS011;12791;50.992;13.788;2023-12-28T03:22:11;7.70;;;3.80;;
24663;SDS011;12791;50.992;13.788;2023-12-28T03:24:38;7.13;;;4.20;;
24663;SDS011;12791;50.992;13.788;2023-12-28T03:27:04;6.50;;;4.03;;
24663;SDS011;12791;50.992;13.788;2023-12-28T03:29:31;7.80;;;4.78;;
24663;SDS011;12791;50.992;13.788;2023-12-28T03:31:59;5.53;;;4.40;;
24663;SDS011;12791;50.992;13.788;2023-12-28T03:34:26;6.18;;;4.57;;
24663;SDS011;12791;50.992;13.788;2023-12-28T03:36:54;5.22;;;3.92;;
24663;SDS011;12791;50.992;13.788;2023-12-28T03:39:22;6.70;;;3.97;;
24663;SDS011;12791;50.992;13.788;2023-12-28T03:41:48;6.85;;;4.28;;
24663;SDS011;12791;50.992;13.788;2023-12-28T03:44:15;8.10;;;4.03;;
24663;SDS011;12791;50.992;13.788;2023-12-28T03:46:42;6.40;;;3.83;;
24663;SDS011;12791;50.992;13.788;2023-12-28T03:49:10;7.60;;;4.50;;
24663;SDS011;12791;50.992;13.788;2023-12-28T03:51:36;5.25;;;3.83;;
24663;SDS011;12791;50.992;13.788;2023-12-28T03:54:03;6.20;;;4.10;;
24663;SDS011;12791;50.992;13.788;2023-12-28T03:56:30;6.97;;;4.13;;
24663;SDS011;12791;50.992;13.788;2023-12-28T03:58:58;5.15;;;3.38;;
24663;SDS011;12791;50.992;13.788;2023-12-28T04:01:24;6.25;;;3.35;;
24663;SDS011;12791;50.992;13.788;2023-12-28T04:03:51;5.05;;;3.33;;
24663;SDS011;12791;50.992;13.788;2023-12-28T04:06:19;4.97;;;3.22;;
24663;SDS011;12791;50.992;13.788;2023-12-28T04:08:45;5.13;;;3.45;;
24663;SDS011;12791;50.992;13.788;2023-12-28T04:11:12;2.80;;;1.98;;
24663;SDS011;12791;50.992;13.788;2023-12-28T04:13:38;1.20;;;0.98;;
24663;SDS011;12791;50.992;13.788;2023-12-28T04:16:05;1.42;;;1.10;;
24663;SDS011;12791;50.992;13.788;2023-12-28T04:18:34;0.68;;;0.60;;
24663;SDS011;12791;50.992;13.788;2023-12-28T04:21:01;1.52;;;0.60;;
24663;SDS011;12791;50.992;13.788;2023-12-28T04:23:28;1.00;;;0.60;;
24663;SDS011;12791;50.992;13.788;2023-12-28T04:25:55;6.43;;;2.92;;
24663;SDS011;12791;50.992;13.788;2023-12-28T04:28:24;4.80;;;3.40;;
24663;SDS011;12791;50.992;13.788;2023-12-28T04:30:50;5.25;;;3.63;;
24663;SDS011;12791;50.992;13.788;2023-12-28T04:33:17;5.22;;;4.00;;
24663;SDS011;12791;50.992;13.788;2023-12-28T04:35:45;7.13;;;4.10;;
24663;SDS011;12791;50.992;13.788;2023-12-28T04:38:11;8.43;;;5.03;;
24663;SDS011;12791;50.992;13.788;2023-12-28T04:40:39;9.27;;;4.63;;
24663;SDS011;12791;50.992;13.788;2023-12-28T04:43:06;5.78;;;4.43;;
24663;SDS011;12791;50.992;13.788;2023-12-28T04:45:33;6.40;;;4.68;;
24663;SDS011;12791;50.992;13.788;2023-12-28T04:47:59;7.72;;;5.22;;
24663;SDS011;12791;50.992;13.788;2023-12-28T04:50:26;7.70;;;4.97;;
24663;SDS011;12791;50.992;13.788;2023-12-28T04:52:53;7.95;;;5.35;;
24663;SDS011;12791;50.992;13.788;2023-12-28T04:55:19;9.48;;;5.32;;
24663;SDS011;12791;50.992;13.788;2023-12-28T04:57:47;6.20;;;4.63;;
24663;SDS011;12791;50.992;13.788;2023-12-28T05:00:14;8.80;;;5.40;;
24663;SDS011;12791;50.992;13.788;2023-12-28T05:02:41;7.80;;;5.05;;
24663;SDS011;12791;50.992;13.788;2023-12-28T05:05:08;9.52;;;5.53;;
24663;SDS011;12791;50.992;13.788;2023-12-28T05:07:37;9.77;;;4.97;;
24663;SDS011;12791;50.992;13.788;2023-12-28T05:10:04;7.43;;;5.13;;
24663;SDS011;12791;50.992;13.788;2023-12-28T05:12:31;7.63;;;5.13;;
24663;SDS011;12791;50.992;13.788;2023-12-28T05:14:59;8.85;;;5.68;;
24663;SDS011;12791;50.992;13.788;2023-12-28T05:17:25;6.78;;;4.75;;
24663;SDS011;12791;50.992;13.788;2023-12-28T05:19:52;7.50;;;5.07;;
24663;SDS011;12791;50.992;13.788;2023-12-28T05:22:18;7.78;;;5.00;;
24663;SDS011;12791;50.992;13.788;2023-12-28T05:24:45;6.03;;;4.45;;
24663;SDS011;12791;50.992;13.788;2023-12-28T05:27:11;7.95;;;5.18;;
24663;SDS011;12791;50.992;13.788;2023-12-28T05:29:38;7.18;;;5.13;;
24663;SDS011;12791;50.992;13.788;2023-12-28T05:32:06;6.30;;;4.90;;
24663;SDS011;12791;50.992;13.788;2023-12-28T05:34:33;5.15;;;4.30;;
24663;SDS011;12791;50.992;13.788;2023-12-28T05:36:59;5.18;;;4.38;;
24663;SDS011;12791;50.992;13.788;2023-12-28T05:39:26;8.40;;;4.45;;
24663;SDS011;12791;50.992;13.788;2023-12-28T05:41:52;7.80;;;4.50;;
24663;SDS011;12791;50.992;13.788;2023-12-28T05:44:19;6.80;;;3.80;;
24663;SDS011;12791;50.992;13.788;2023-12-28T05:46:46;6.65;;;4.30;;
24663;SDS011;12791;50.992;13.788;2023-12-28T05:49:14;5.68;;;4.10;;
24663;SDS011;12791;50.992;13.788;2023-12-28T05:51:41;6.28;;;4.10;;
24663;SDS011;12791;50.992;13.788;2023-12-28T05:54:08;6.85;;;4.65;;
24663;SDS011;12791;50.992;13.788;2023-12-28T05:56:34;5.70;;;3.67;;
24663;SDS011;12791;50.992;13.788;2023-12-28T05:59:01;6.30;;;3.65;;
24663;SDS011;12791;50.992;13.788;2023-12-28T06:01:28;6.53;;;3.38;;
24663;SDS011;12791;50.992;13.788;2023-12-28T06:03:54;4.45;;;3.80;;
24663;SDS011;12791;50.992;13.788;2023-12-28T06:06:22;8.70;;;4.93;;
24663;SDS011;12791;50.992;13.788;2023-12-28T06:08:49;8.07;;;5.70;;
24663;SDS011;12791;50.992;13.788;2023-12-28T06:11:16;8.63;;;6.30;;
24663;SDS011;12791;50.992;13.788;2023-12-28T06:13:43;8.60;;;5.82;;
24663;SDS011;12791;50.992;13.788;2023-12-28T06:16:09;8.43;;;5.90;;
24663;SDS011;12791;50.992;13.788;2023-12-28T06:18:36;9.77;;;5.63;;
24663;SDS011;12791;50.992;13.788;2023-12-28T06:21:02;7.40;;;5.60;;
24663;SDS011;12791;50.992;13.788;2023-12-28T06:23:32;7.53;;;5.70;;
24663;SDS011;12791;50.992;13.788;2023-12-28T06:26:03;7.68;;;5.28;;
24663;SDS011;12791;50.992;13.788;2023-12-28T06:28:30;9.70;;;5.50;;
24663;SDS011;12791;50.992;13.788;2023-12-28T06:30:57;9.57;;;6.03;;
24663;SDS011;12791;50.992;13.788;2023-12-28T06:33:25;8.75;;;5.72;;
24663;SDS011;12791;50.992;13.788;2023-12-28T06:35:52;7.05;;;4.95;;
24663;SDS011;12791;50.992;13.788;2023-12-28T06:38:19;4.97;;;3.90;;
24663;SDS011;12791;50.992;13.788;2023-12-28T06:40:47;5.28;;;4.18;;
24663;SDS011;12791;50.992;13.788;2023-12-28T06:43:13;6.38;;;4.45;;
24663;SDS011;12791;50.992;13.788;2023-12-28T06:45:40;6.00;;;3.65;;
24663;SDS011;12791;50.992;13.788;2023-12-28T06:48:07;3.45;;;1.05;;
24663;SDS011;12791;50.992;13.788;2023-12-28T06:50:33;2.38;;;0.90;;
24663;SDS011;12791;50.992;13.788;2023-12-28T06:53:00;1.90;;;1.00;;
24663;SDS011;12791;50.992;13.788;2023-12-28T06:55:26;5.20;;;1.05;;
24663;SDS011;12791;50.992;13.788;2023-12-28T06:57:55;3.15;;;1.00;;
24663;SDS011;12791;50.992;13.788;2023-12-28T07:00:21;0.88;;;0.88;;
24663;SDS011;12791;50.992;13.788;2023-12-28T07:02:48;0.95;;;0.70;;
24663;SDS011;12791;50.992;13.788;2023-12-28T07:05:14;1.60;;;1.00;;
24663;SDS011;12791;50.992;13.788;2023-12-28T07:07:41;1.55;;;0.88;;
24663;SDS011;12791;50.992;13.788;2023-12-28T07:10:08;1.75;;;1.08;;
24663;SDS011;12791;50.992;13.788;2023-12-28T07:12:35;1.02;;;0.93;;
24663;SDS011;12791;50.992;13.788;2023-12-28T07:15:03;1.30;;;0.90;;
24663;SDS011;12791;50.992;13.788;2023-12-28T07:17:30;1.23;;;1.13;;
24663;SDS011;12791;50.992;13.788;2023-12-28T07:19:56;1.15;;;1.00;;
24663;SDS011;12791;50.992;13.788;2023-12-28T07:22:23;1.30;;;1.13;;
24663;SDS011;12791;50.992;13.788;2023-12-28T07:24:49;1.67;;;1.20;;
24663;SDS011;12791;50.992;13.788;2023-12-28T07:27:16;2.83;;;0.90;;
24663;SDS011;12791;50.992;13.788;2023-12-28T07:29:43;1.08;;;0.90;;
24663;SDS011;12791;50.992;13.788;2023-12-28T07:32:11;1.20;;;1.10;;
24663;SDS011;12791;50.992;13.788;2023-12-28T07:34:39;2.42;;;1.15;;
24663;SDS011;12791;50.992;13.788;2023-12-28T07:37:05;1.60;;;0.90;;
24663;SDS011;12791;50.992;13.788;2023-12-28T07:39:32;2.08;;;1.15;;
24663;SDS011;12791;50.992;13.788;2023-12-28T07:41:59;0.85;;;0.85;;
24663;SDS011;12791;50.992;13.788;2023-12-28T07:44:25;1.08;;;0.98;;
24663;SDS011;12791;50.992;13.788;2023-12-28T07:46:52;1.00;;;0.90;;
24663;SDS011;12791;50.992;13.788;2023-12-28T07:49:21;1.27;;;0.98;;
24663;SDS011;12791;50.992;13.788;2023-12-28T07:51:48;1.45;;;0.80;;
24663;SDS011;12791;50.992;13.788;2023-12-28T07:54:14;1.63;;;1.15;;
24663;SDS011;12791;50.992;13.788;2023-12-28T07:56:41;0.95;;;0.93;;
24663;SDS011;12791;50.992;13.788;2023-12-28T07:59:07;1.42;;;0.95;;
24663;SDS011;12791;50.992;13.788;2023-12-28T08:01:34;2.45;;;1.10;;
24663;SDS011;12791;50.992;13.788;2023-12-28T08:04:01;1.70;;;0.75;;
24663;SDS011;12791;50.992;13.788;2023-12-28T08:06:29;1.27;;;0.95;;
24663;SDS011;12791;50.992;13.788;2023-12-28T08:08:57;2.42;;;0.80;;
24663;SDS011;12791;50.992;13.788;2023-12-28T08:11:25;1.05;;;0.95;;
24663;SDS011;12791;50.992;13.788;2023-12-28T08:13:52;1.55;;;1.02;;
24663;SDS011;12791;50.992;13.788;2023-12-28T08:16:19;1.67;;;0.93;;
24663;SDS011;12791;50.992;13.788;2023-12-28T08:18:46;1.75;;;1.35;;
24663;SDS011;12791;50.992;13.788;2023-12-28T08:21:13;1.08;;;0.98;;
24663;SDS011;12791;50.992;13.788;2023-12-28T08:23:41;0.90;;;0.90;;
24663;SDS011;12791;50.992;13.788;2023-12-28T08:26:07;0.80;;;0.80;;
24663;SDS011;12791;50.992;13.788;2023-12-28T08:28:35;1.38;;;1.00;;
24663;SDS011;12791;50.992;13.788;2023-12-28T08:31:01;1.58;;;1.05;;
24663;SDS011;12791;50.992;13.788;2023-12-28T08:33:28;3.08;;;0.93;;
24663;SDS011;12791;50.992;13.788;2023-12-28T08:35:55;2.30;;;0.93;;
24663;SDS011;12791;50.992;13.788;2023-12-28T08:38:21;1.73;;;1.00;;
24663;SDS011;12791;50.992;13.788;2023-12-28T08:40:49;1.27;;;1.08;;
24663;SDS011;12791;50.992;13.788;2023-12-28T08:43:16;1.20;;;0.90;;
24663;SDS011;12791;50.992;13.788;2023-12-28T08:45:42;1.63;;;1.25;;
24663;SDS011;12791;50.992;13.788;2023-12-28T08:48:09;2.83;;;1.35;;
24663;SDS011;12791;50.992;13.788;2023-12-28T08:50:35;2.50;;;1.25;;
24663;SDS011;12791;50.992;13.788;2023-12-28T08:53:02;1.42;;;1.20;;
24663;SDS011;12791;50.992;13.788;2023-12-28T08:55:29;1.65;;;1.15;;
24663;SDS011;12791;50.992;13.788;2023-12-28T08:57:57;1.70;;;1.58;;
24663;SDS011;12791;50.992;13.788;2023-12-28T09:00:24;3.00;;;2.08;;
24663;SDS011;12791;50.992;13.788;2023-12-28T09:02:50;2.13;;;1.90;;
24663;SDS011;12791;50.992;13.788;2023-12-28T09:05:17;3.97;;;1.67;;
24663;SDS011;12791;50.992;13.788;2023-12-28T09:07:45;1.98;;;1.42;;
24663;SDS011;12791;50.992;13.788;2023-12-28T09:10:12;1.35;;;0.90;;
24663;SDS011;12791;50.992;13.788;2023-12-28T09:12:39;1.45;;;1.15;;
24663;SDS011;12791;50.992;13.788;2023-12-28T09:15:08;1.92;;;1.00;;
24663;SDS011;12791;50.992;13.788;2023-12-28T09:17:35;1.17;;;0.90;;
24663;SDS011;12791;50.992;13.788;2023-12-28T09:20:03;1.13;;;0.80;;
24663;SDS011;12791;50.992;13.788;2023-12-28T09:22:31;2.25;;;0.85;;
24663;SDS011;12791;50.992;13.788;2023-12-28T09:24:58;2.58;;;0.90;;
24663;SDS011;12791;50.992;13.788;2023-12-28T09:27:25;2.20;;;0.80;;
24663;SDS011;12791;50.992;13.788;2023-12-28T09:29:51;1.00;;;0.90;;
24663;SDS011;12791;50.992;13.788;2023-12-28T09:32:19;0.95;;;0.85;;
24663;SDS011;12791;50.992;13.788;2023-12-28T09:34:46;1.75;;;1.00;;
24663;SDS011;12791;50.992;13.788;2023-12-28T09:37:12;0.95;;;0.88;;
24663;SDS011;12791;50.992;13.788;2023-12-28T09:39:39;1.13;;;0.98;;
24663;SDS011;12791;50.992;13.788;2023-12-28T09:42:06;1.58;;;1.00;;
24663;SDS011;12791;50.992;13.788;2023-12-28T09:44:43;2.13;;;1.00;;
24663;SDS011;12791;50.992;13.788;2023-12-28T09:47:09;0.95;;;0.85;;
24663;SDS011;12791;50.992;13.788;2023-12-28T09:49:39;1.00;;;0.82;;
24663;SDS011;12791;50.992;13.788;2023-12-28T09:52:07;1.45;;;0.80;;
24663;SDS011;12791;50.992;13.788;2023-12-28T09:54:34;1.33;;;0.90;;
24663;SDS011;12791;50.992;13.788;2023-12-28T09:57:01;1.45;;;0.70;;
24663;SDS011;12791;50.992;13.788;2023-12-28T09:59:28;0.65;;;0.65;;
24663;SDS011;12791;50.992;13.788;2023-12-28T10:01:55;1.30;;;0.90;;
24663;SDS011;12791;50.992;13.788;2023-12-28T10:04:22;1.67;;;0.82;;
24663;SDS011;12791;50.992;13.788;2023-12-28T10:06:50;1.05;;;0.73;;
24663;SDS011;12791;50.992;13.788;2023-12-28T10:09:17;0.90;;;0.90;;
24663;SDS011;12791;50.992;13.788;2023-12-28T10:11:44;0.80;;;0.80;;
24663;SDS011;12791;50.992;13.788;2023-12-28T10:14:10;1.05;;;0.95;;
24663;SDS011;12791;50.992;13.788;2023-12-28T10:16:39;1.75;;;1.02;;
24663;SDS011;12791;50.992;13.788;2023-12-28T10:19:06;1.80;;;0.80;;
24663;SDS011;12791;50.992;13.788;2023-12-28T10:21:33;0.70;;;0.70;;
24663;SDS011;12791;50.992;13.788;2023-12-28T10:24:01;2.05;;;1.00;;
24663;SDS011;12791;50.992;13.788;2023-12-28T10:26:28;1.65;;;1.00;;
24663;SDS011;12791;50.992;13.788;2023-12-28T10:28:56;1.35;;;0.90;;
24663;SDS011;12791;50.992;13.788;2023-12-28T10:31:25;1.38;;;0.98;;
24663;SDS011;12791;50.992;13.788;2023-12-28T10:33:51;0.95;;;0.80;;
24663;SDS011;12791;50.992;13.788;2023-12-28T10:36:18;0.98;;;0.88;;
24663;SDS011;12791;50.992;13.788;2023-12-28T10:38:46;1.20;;;1.05;;
24663;SDS011;12791;50.992;13.788;2023-12-28T10:41:16;1.55;;;0.90;;
24663;SDS011;12791;50.992;13.788;2023-12-28T10:43:45;0.90;;;0.77;;
24663;SDS011;12791;50.992;13.788;2023-12-28T10:46:13;1.83;;;0.90;;
24663;SDS011;12791;50.992;13.788;2023-12-28T10:48:47;1.98;;;1.60;;
24663;SDS011;12791;50.992;13.788;2023-12-28T10:51:18;2.55;;;1.30;;
24663;SDS011;12791;50.992;13.788;2023-12-28T10:53:48;1.27;;;1.00;;
24663;SDS011;12791;50.992;13.788;2023-12-28T10:56:27;1.05;;;0.90;;
24663;SDS011;12791;50.992;13.788;2023-12-28T10:58:58;2.55;;;0.90;;
24663;SDS011;12791;50.992;13.788;2023-12-28T11:01:30;1.73;;;1.05;;
24663;SDS011;12791;50.992;13.788;2023-12-28T11:04:00;1.33;;;1.23;;
24663;SDS011;12791;50.992;13.788;2023-12-28T11:06:30;1.63;;;1.52;;
24663;SDS011;12791;50.992;13.788;2023-12-28T11:08:58;1.67;;;1.58;;
24663;SDS011;12791;50.992;13.788;2023-12-28T11:11:28;1.20;;;1.10;;
24663;SDS011;12791;50.992;13.788;2023-12-28T11:13:56;0.85;;;0.85;;
24663;SDS011;12791;50.992;13.788;2023-12-28T11:16:25;1.25;;;0.88;;
24663;SDS011;12791;50.992;13.788;2023-12-28T11:18:53;2.50;;;0.75;;
24663;SDS011;12791;50.992;13.788;2023-12-28T11:21:21;0.85;;;0.80;;
24663;SDS011;12791;50.992;13.788;2023-12-28T11:23:49;1.17;;;1.08;;
24663;SDS011;12791;50.992;13.788;2023-12-28T11:26:16;1.45;;;0.70;;
24663;SDS011;12791;50.992;13.788;2023-12-28T11:28:44;0.90;;;0.70;;
24663;SDS011;12791;50.992;13.788;2023-12-28T11:31:11;0.82;;;0.68;;
24663;SDS011;12791;50.992;13.788;2023-12-28T11:33:43;1.17;;;0.82;;
24663;SDS011;12791;50.992;13.788;2023-12-28T11:36:10;1.40;;;0.80;;
24663;SDS011;12791;50.992;13.788;2023-12-28T11:38:37;1.67;;;1.17;;
24663;SDS011;12791;50.992;13.788;2023-12-28T11:41:06;1.80;;;1.52;;
24663;SDS011;12791;50.992;13.788;2023-12-28T11:43:34;1.75;;;1.60;;
24663;SDS011;12791;50.992;13.788;2023-12-28T11:46:03;1.48;;;1.20;;
24663;SDS011;12791;50.992;13.788;2023-12-28T11:48:31;1.95;;;1.10;;
24663;SDS011;12791;50.992;13.788;2023-12-28T11:50:58;1.58;;;1.00;;
24663;SDS011;12791;50.992;13.788;2023-12-28T11:53:26;0.70;;;0.70;;
24663;SDS011;12791;50.992;13.788;2023-12-28T11:55:58;1.70;;;0.90;;
24663;SDS011;12791;50.992;13.788;2023-12-28T11:58:28;1.02;;;0.77;;
24663;SDS011;12791;50.992;13.788;2023-12-28T12:00:54;1.05;;;0.80;;
24663;SDS011;12791;50.992;13.788;2023-12-28T12:03:24;3.13;;;2.50;;
24663;SDS011;12791;50.992;13.788;2023-12-28T12:05:51;4.00;;;3.60;;
24663;SDS011;12791;50.992;13.788;2023-12-28T12:08:19;5.05;;;3.63;;
24663;SDS011;12791;50.992;13.788;2023-12-28T12:10:46;4.90;;;4.30;;
24663;SDS011;12791;50.992;13.788;2023-12-28T12:13:12;3.70;;;2.55;;
24663;SDS011;12791;50.992;13.788;2023-12-28T12:15:41;1.85;;;1.50;;
24663;SDS011;12791;50.992;13.788;2023-12-28T12:18:07;1.70;;;1.33;;
24663;SDS011;12791;50.992;13.788;2023-12-28T12:20:36;0.93;;;0.85;;
24663;SDS011;12791;50.992;13.788;2023-12-28T12:23:04;1.33;;;1.00;;
24663;SDS011;12791;50.992;13.788;2023-12-28T12:25:30;0.80;;;0.80;;
24663;SDS011;12791;50.992;13.788;2023-12-28T12:27:57;0.98;;;0.85;;
24663;SDS011;12791;50.992;13.788;2023-12-28T12:30:24;0.88;;;0.70;;
24663;SDS011;12791;50.992;13.788;2023-12-28T12:32:51;1.25;;;0.90;;
24663;SDS011;12791;50.992;13.788;2023-12-28T12:35:17;0.88;;;0.68;;
24663;SDS011;12791;50.992;13.788;2023-12-28T12:37:47;2.55;;;0.90;;
24663;SDS011;12791;50.992;13.788;2023-12-28T12:40:16;1.08;;;1.00;;
24663;SDS011;12791;50.992;13.788;2023-12-28T12:42:51;2.40;;;1.05;;
24663;SDS011;12791;50.992;13.788;2023-12-28T12:45:18;1.08;;;0.82;;
24663;SDS011;12791;50.992;13.788;2023-12-28T12:47:46;1.23;;;0.90;;
24663;SDS011;12791;50.992;13.788;2023-12-28T12:50:12;0.90;;;0.80;;
24663;SDS011;12791;50.992;13.788;2023-12-28T12:52:39;1.55;;;0.90;;
24663;SDS011;12791;50.992;13.788;2023-12-28T12:55:11;0.75;;;0.75;;
24663;SDS011;12791;50.992;13.788;2023-12-28T12:57:38;0.70;;;0.70;;
24663;SDS011;12791;50.992;13.788;2023-12-28T13:00:06;1.25;;;0.82;;
24663;SDS011;12791;50.992;13.788;2023-12-28T13:02:35;0.80;;;0.80;;
24663;SDS011;12791;50.992;13.788;2023-12-28T13:05:02;0.70;;;0.70;;
24663;SDS011;12791;50.992;13.788;2023-12-28T13:07:30;1.27;;;0.80;;
24663;SDS011;12791;50.992;13.788;2023-12-28T13:09:57;1.02;;;0.75;;
24663;SDS011;12791;50.992;13.788;2023-12-28T13:12:25;2.55;;;1.88;;
24663;SDS011;12791;50.992;13.788;2023-12-28T13:14:51;2.17;;;1.50;;
24663;SDS011;12791;50.992;13.788;2023-12-28T13:17:18;3.63;;;1.67;;
24663;SDS011;12791;50.992;13.788;2023-12-28T13:19:44;0.82;;;0.82;;
24663;SDS011;12791;50.992;13.788;2023-12-28T13:22:11;1.15;;;0.85;;
24663;SDS011;12791;50.992;13.788;2023-12-28T13:24:37;2.10;;;1.20;;
24663;SDS011;12791;50.992;13.788;2023-12-28T13:27:04;0.80;;;0.80;;
24663;SDS011;12791;50.992;13.788;2023-12-28T13:29:32;1.02;;;0.70;;
24663;SDS011;12791;50.992;13.788;2023-12-28T13:31:59;0.80;;;0.80;;
24663;SDS011;12791;50.992;13.788;2023-12-28T13:34:26;2.75;;;0.88;;
24663;SDS011;12791;50.992;13.788;2023-12-28T13:36:53;1.00;;;0.90;;
24663;SDS011;12791;50.992;13.788;2023-12-28T13:39:20;1.27;;;0.75;;
24663;SDS011;12791;50.992;13.788;2023-12-28T13:41:47;1.42;;;0.90;;
24663;SDS011;12791;50.992;13.788;2023-12-28T13:44:13;1.65;;;1.00;;
24663;SDS011;12791;50.992;13.788;2023-12-28T13:46:41;1.65;;;0.80;;
24663;SDS011;12791;50.992;13.788;2023-12-28T13:49:08;1.33;;;0.88;;
24663;SDS011;12791;50.992;13.788;2023-12-28T13:51:35;1.70;;;1.08;;
24663;SDS011;12791;50.992;13.788;2023-12-28T13:54:01;1.40;;;0.93;;
24663;SDS011;12791;50.992;13.788;2023-12-28T13:56:28;3.65;;;1.30;;
24663;SDS011;12791;50.992;13.788;2023-12-28T13:58:55;2.88;;;2.10;;
24663;SDS011;12791;50.992;13.788;2023-12-28T14:01:21;3.15;;;2.40;;
24663;SDS011;12791;50.992;13.788;2023-12-28T14:03:49;1.90;;;1.20;;
24663;SDS011;12791;50.992;13.788;2023-12-28T14:06:16;1.95;;;1.20;;
24663;SDS011;12791;50.992;13.788;2023-12-28T14:08:44;2.22;;;1.40;;
24663;SDS011;12791;50.992;13.788;2023-12-28T14:11:10;1.15;;;1.08;;
24663;SDS011;12791;50.992;13.788;2023-12-28T14:13:37;1.50;;;0.90;;
24663;SDS011;12791;50.992;13.788;2023-12-28T14:16:04;2.97;;;1.00;;
24663;SDS011;12791;50.992;13.788;2023-12-28T14:18:30;0.90;;;0.90;;
24663;SDS011;12791;50.992;13.788;2023-12-28T14:20:58;1.55;;;0.80;;
24663;SDS011;12791;50.992;13.788;2023-12-28T14:23:25;2.63;;;1.00;;
24663;SDS011;12791;50.992;13.788;2023-12-28T14:25:53;0.82;;;0.80;;
24663;SDS011;12791;50.992;13.788;2023-12-28T14:28:20;1.20;;;1.05;;
24663;SDS011;12791;50.992;13.788;2023-12-28T14:30:49;0.93;;;0.70;;
24663;SDS011;12791;50.992;13.788;2023-12-28T14:33:16;1.10;;;1.00;;